Santa Fe, New Mexico
Current Conditions -  °F | °C
As of 7:53 PM on Saturday 22 Nov 2014 (Local Time) from KSAF Reporting Station
Clear Clear  
Wind Chill:   Ceiling: Unl
Heat Index:   Visibility: 10mi
Dew Point: -11°   Wind: 6mph
Humidity: 34%   Direction: 340°NNW
Pressure: 29.89"   Gusts: NA
Location:  35.69°N, 105.93°W
Report Text: KSAF 230253Z AUTO 34005KT 10SM CLR 04/M11 A2989 RMK AO2 SLP105 T00391106 58004
Loading
Personal Weather Stations






























Interactive Weather Map New forecast layout! Learn more

10-Day Weather Forecast

Advertisements
Track Severe Weather on mobile